De Kalb Junction, New York
Current Conditions -  °F | °C
As of 4:05 PM on Saturday 25 Oct 2014 (Local Time) from KMSS Reporting Station
Light Rain Light Rain  
Wind Chill: 54°   Ceiling: 6000
Heat Index: 54°   Visibility: 4mi
Dew Point: 51°   Wind: 12mph
Humidity: 90%   Direction: 190°S
Pressure: 29.51"   Gusts: NA
Location:  44.5°N, 75.27°W
Report Text: KMSS 252005Z AUTO 19010KT 4SM -RA BR OVC060 12/11 A2951 RMK AO2 P0002 T01220106
Loading
Personal Weather Stations






























Interactive Weather Map
Tropical Storm Tracking
New forecast layout! Learn more

10-Day Weather Forecast

Advertisements
Track Severe Weather on mobile